Time;durP1;ratioP1;P1;durP2;ratioP2;P2;SDS_P1;SDS_P2;PMS_P1;PMS_P2;Temp;Humidity;BMP_temperature;BMP_pressure;BME280_temperature;BME280_humidity;BME280_pressure;Samples;Min_cycle;Max_cycle;Signal;HPM_P1;HPM_P2
2023/01/12 00:01:26;;;;;;;6.78;5.05;;;-2.70;69.60;;;;;;5107936;28;20027;-50
2023/01/12 00:03:53;;;;;;;6.07;5.10;;;-2.70;69.70;;;;;;5104264;28;20024;-53
2023/01/12 00:06:19;;;;;;;6.32;5.10;;;-2.70;69.80;;;;;;5104836;28;20047;-51
2023/01/12 00:08:46;;;;;;;5.85;4.65;;;-2.70;69.90;;;;;;5103885;28;20713;-51
2023/01/12 00:11:12;;;;;;;5.70;4.57;;;-2.70;70.00;;;;;;5106523;28;20416;-50
2023/01/12 00:13:38;;;;;;;7.18;5.25;;;-2.70;70.10;;;;;;5095006;28;20121;-49
2023/01/12 00:19:19;;;;;;;8.25;4.72;;;-2.60;70.20;;;;;;5080721;28;20067;-51
2023/01/12 00:22:09;;;;;;;8.30;5.10;;;-2.50;70.10;;;;;;5104668;28;20513;-54
2023/01/12 00:24:37;;;;;;;7.55;5.35;;;-2.50;70.00;;;;;;5100600;28;20786;-49
2023/01/12 00:27:05;;;;;;;7.07;5.00;;;-2.50;70.00;;;;;;5105798;28;20120;-52
2023/01/12 00:29:31;;;;;;;7.85;5.43;;;-2.50;70.00;;;;;;5097294;28;20104;-51
2023/01/12 00:31:59;;;;;;;7.07;5.07;;;-2.50;70.10;;;;;;5104136;28;20388;-53
2023/01/12 00:34:25;;;;;;;6.95;5.20;;;-2.50;70.10;;;;;;5111177;28;20067;-52
2023/01/12 00:36:52;;;;;;;6.70;4.85;;;-2.50;70.10;;;;;;5106152;28;20396;-49
2023/01/12 00:39:18;;;;;;;14.43;5.55;;;-2.40;70.30;;;;;;5101043;28;20019;-52
2023/01/12 00:47:15;;;;;;;7.28;4.85;;;-2.20;70.30;;;;;;5102128;28;20057;-51
2023/01/12 00:49:41;;;;;;;8.38;5.20;;;-2.20;70.30;;;;;;5101424;28;20035;-51
2023/01/12 00:52:09;;;;;;;6.65;4.78;;;-2.10;70.10;;;;;;5105907;28;20038;-55
2023/01/12 00:54:35;;;;;;;5.70;4.60;;;-2.10;70.10;;;;;;5100488;28;20435;-54
2023/01/12 00:57:02;;;;;;;6.50;4.80;;;-2.10;70.00;;;;;;5095930;28;20032;-52
2023/01/12 00:59:28;;;;;;;5.80;4.78;;;-2.10;69.90;;;;;;5096381;28;20035;-49
2023/01/12 01:01:53;;;;;;;6.72;4.80;;;-2.10;69.90;;;;;;5104871;28;20405;-56
2023/01/12 01:04:19;;;;;;;5.57;4.57;;;-2.10;69.90;;;;;;5093340;28;20031;-56
2023/01/12 01:06:45;;;;;;;7.93;5.47;;;-2.10;70.00;;;;;;5106799;28;20085;-56
2023/01/12 01:09:10;;;;;;;5.30;4.35;;;-2.00;70.10;;;;;;5103999;28;20100;-56
2023/01/12 01:11:36;;;;;;;6.38;4.68;;;-2.10;70.00;;;;;;5103438;28;20118;-56
2023/01/12 01:14:02;;;;;;;5.57;4.22;;;-2.10;70.10;;;;;;5103297;28;20111;-56
2023/01/12 01:16:28;;;;;;;7.20;4.97;;;-2.00;70.20;;;;;;5108620;28;20607;-50
2023/01/12 01:18:55;;;;;;;7.35;5.45;;;-2.00;70.30;;;;;;5098441;28;20394;-52
2023/01/12 01:21:21;;;;;;;6.68;5.72;;;-2.00;70.30;;;;;;5107273;28;20019;-53
2023/01/12 01:23:46;;;;;;;7.78;5.95;;;-2.00;70.30;;;;;;5103356;28;20076;-52
2023/01/12 01:26:15;;;;;;;7.15;5.25;;;-1.90;70.40;;;;;;5100355;28;20085;-49
2023/01/12 01:28:41;;;;;;;13.40;5.85;;;-1.90;70.40;;;;;;5105172;28;20036;-52
2023/01/12 01:31:14;;;;;;;8.57;5.53;;;-1.90;70.30;;;;;;5104235;28;20034;-51
2023/01/12 01:33:41;;;;;;;10.60;6.47;;;-1.80;70.40;;;;;;5105849;28;20099;-49
2023/01/12 01:36:07;;;;;;;7.28;5.57;;;-1.70;70.40;;;;;;5107090;28;20032;-49
2023/01/12 01:38:33;;;;;;;8.07;6.30;;;-1.70;70.30;;;;;;5103923;28;20115;-55
2023/01/12 01:40:59;;;;;;;14.15;6.95;;;-1.60;70.30;;;;;;5105201;28;20526;-51
2023/01/12 01:43:26;;;;;;;8.40;6.35;;;-1.60;70.10;;;;;;5102909;27;20130;-52
2023/01/12 01:46:04;;;;;;;12.43;6.82;;;-1.50;70.10;;;;;;5101753;28;20039;-51
2023/01/12 01:48:33;;;;;;;9.35;6.40;;;-1.50;69.90;;;;;;5103108;28;20028;-50
2023/01/12 01:51:03;;;;;;;8.05;5.90;;;-1.50;70.00;;;;;;5106806;28;20040;-59
2023/01/12 01:53:34;;;;;;;7.97;5.63;;;-1.50;70.00;;;;;;5108407;28;20020;-62
2023/01/12 01:56:06;;;;;;;6.95;5.43;;;-1.40;69.90;;;;;;5109777;28;20031;-57
2023/01/12 01:59:05;;;;;;;8.93;6.07;;;-1.40;69.80;;;;;;5105490;28;20035;-61
2023/01/12 02:01:31;;;;;;;10.60;5.90;;;-1.40;69.80;;;;;;5097467;28;20039;-60
2023/01/12 02:03:59;;;;;;;5.90;4.90;;;-1.40;69.90;;;;;;5103402;28;20199;-60
2023/01/12 02:06:26;;;;;;;10.85;5.43;;;-1.40;70.00;;;;;;5106702;28;20039;-61
2023/01/12 02:09:25;;;;;;;8.70;5.40;;;-1.40;70.00;;;;;;5099077;28;20048;-60
2023/01/12 02:17:42;;;;;;;9.82;5.10;;;-1.40;69.70;;;;;;5098288;28;20057;-60
2023/01/12 02:20:39;;;;;;;8.65;4.78;;;-1.30;69.90;;;;;;5105075;28;20412;-60
2023/01/12 02:23:23;;;;;;;6.72;4.97;;;-1.30;69.90;;;;;;5099054;28;20034;-57
2023/01/12 02:26:25;;;;;;;7.95;5.35;;;-1.20;69.90;;;;;;5098400;28;20103;-60
2023/01/12 02:29:13;;;;;;;7.55;4.97;;;-1.20;69.70;;;;;;5095587;28;20032;-55
2023/01/12 02:32:09;;;;;;;7.20;4.93;;;-1.10;69.60;;;;;;5099140;28;20035;-59
2023/01/12 02:34:47;;;;;;;9.95;5.13;;;-1.10;69.50;;;;;;5101548;28;20028;-58
2023/01/12 02:37:37;;;;;;;6.65;4.97;;;-1.20;69.20;;;;;;5105110;28;20036;-61
2023/01/12 02:40:10;;;;;;;6.15;4.78;;;-1.30;69.30;;;;;;5098190;28;20176;-60
2023/01/12 02:42:40;;;;;;;6.93;4.38;;;-1.30;69.50;;;;;;5101716;28;20039;-59
2023/01/12 02:45:28;;;;;;;7.13;4.70;;;-1.30;69.70;;;;;;5104452;28;20453;-60
2023/01/12 02:47:59;;;;;;;6.50;4.32;;;-1.30;69.70;;;;;;5096374;28;20030;-58
2023/01/12 02:50:38;;;;;;;;;;;-1.30;69.70;;;;;;5103224;28;20075;-60
2023/01/12 02:53:11;;;;;;;5.82;4.72;;;-1.30;69.80;;;;;;5099434;28;19991;-60
2023/01/12 02:55:38;;;;;;;6.93;4.40;;;-1.30;69.70;;;;;;5094456;28;20039;-61
2023/01/12 02:58:07;;;;;;;6.13;4.60;;;-1.30;69.70;;;;;;5110757;28;20039;-57
2023/01/12 03:00:36;;;;;;;7.95;4.88;;;-1.30;69.90;;;;;;5111043;28;20024;-61
2023/01/12 03:03:03;;;;;;;7.72;5.35;;;-1.30;70.00;;;;;;5106777;27;20031;-60
2023/01/12 03:05:28;;;;;;;8.43;5.03;;;-1.20;70.00;;;;;;5108029;28;20378;-61
2023/01/12 03:07:59;;;;;;;9.05;6.05;;;-1.20;70.00;;;;;;5106807;28;20066;-60
2023/01/12 03:10:46;;;;;;;7.07;5.25;;;-1.20;70.00;;;;;;5106419;28;20055;-56
2023/01/12 03:13:15;;;;;;;10.05;5.40;;;-1.20;69.80;;;;;;5103704;28;20027;-55
2023/01/12 03:15:47;;;;;;;5.47;4.70;;;-1.20;69.70;;;;;;5109258;28;20457;-56
2023/01/12 03:18:27;;;;;;;9.45;5.47;;;-1.20;69.70;;;;;;5108233;28;20126;-56
2023/01/12 03:20:58;;;;;;;8.00;5.72;;;-1.20;69.90;;;;;;5099041;28;20466;-55
2023/01/12 03:23:36;;;;;;;5.35;4.75;;;-1.20;69.90;;;;;;5102267;28;20035;-54
2023/01/12 03:26:03;;;;;;;6.65;5.07;;;-1.20;69.90;;;;;;5106603;28;20435;-48
2023/01/12 03:28:34;;;;;;;6.25;4.57;;;-1.20;69.90;;;;;;5106479;28;20064;-48
2023/01/12 03:31:07;;;;;;;7.80;6.07;;;-1.20;70.30;;;;;;5103919;28;20039;-57
2023/01/12 03:33:33;;;;;;;6.55;5.68;;;-1.20;70.10;;;;;;5110794;28;20450;-57
2023/01/12 03:36:36;;;;;;;5.57;4.60;;;-1.20;70.10;;;;;;5105020;28;20110;-58
2023/01/12 03:39:29;;;;;;;6.03;4.68;;;-1.30;70.00;;;;;;5088346;28;20040;-60
2023/01/12 03:42:11;;;;;;;6.47;5.05;;;-1.30;70.30;;;;;;5103223;28;20065;-52
2023/01/12 03:44:39;;;;;;;;;;;-1.40;70.60;;;;;;5102995;28;20070;-49
2023/01/12 03:47:15;;;;;;;6.07;4.90;;;-1.40;70.80;;;;;;5100482;28;19912;-52
2023/01/12 03:49:49;;;;;;;5.57;4.57;;;-1.40;70.90;;;;;;5101515;28;20075;-52
2023/01/12 03:52:16;;;;;;;9.23;5.68;;;-1.30;70.90;;;;;;5103595;28;20036;-56
2023/01/12 03:54:45;;;;;;;7.75;5.60;;;-1.30;70.90;;;;;;5103611;28;20015;-56
2023/01/12 03:57:12;;;;;;;6.93;5.30;;;-1.30;70.90;;;;;;5098753;28;20043;-55
2023/01/12 03:59:38;;;;;;;11.30;5.55;;;-1.30;70.90;;;;;;5104824;28;20546;-55
2023/01/12 04:02:03;;;;;;;11.05;5.63;;;-1.30;71.00;;;;;;5099731;28;20062;-60
2023/01/12 04:04:29;;;;;;;7.57;5.38;;;-1.40;71.00;;;;;;5110461;28;20032;-58
2023/01/12 04:06:55;;;;;;;6.43;5.13;;;-1.40;71.20;;;;;;5107308;28;20031;-53
2023/01/12 04:09:21;;;;;;;6.68;5.53;;;-1.50;71.40;;;;;;5102815;28;20489;-54
2023/01/12 04:14:31;;;;;;;5.88;4.65;;;-1.60;71.80;;;;;;5101198;28;20102;-55
2023/01/12 04:16:57;;;;;;;7.78;4.70;;;-1.60;72.00;;;;;;5102879;28;20491;-56
2023/01/12 04:19:22;;;;;;;6.57;5.15;;;-1.60;72.00;;;;;;5100081;28;20051;-50
2023/01/12 04:24:32;;;;;;;6.65;4.90;;;-1.60;72.20;;;;;;5105549;28;20038;-61
2023/01/12 04:26:58;;;;;;;7.53;5.18;;;-1.50;72.30;;;;;;5109709;28;20027;-60
2023/01/12 04:29:23;;;;;;;6.22;4.82;;;-1.50;72.40;;;;;;5107196;28;20045;-59
2023/01/12 04:31:49;;;;;;;5.85;4.75;;;-1.40;72.30;;;;;;5103870;28;20024;-56
2023/01/12 04:34:14;;;;;;;6.68;4.63;;;-1.40;72.20;;;;;;5102305;28;20024;-57
2023/01/12 04:36:43;;;;;;;7.95;4.55;;;-1.40;72.10;;;;;;5104247;28;20027;-55
2023/01/12 04:39:09;;;;;;;6.03;4.95;;;-1.30;72.10;;;;;;5103335;28;20064;-56
2023/01/12 04:41:35;;;;;;;6.00;4.53;;;-1.30;71.90;;;;;;5105890;28;20033;-54
2023/01/12 04:44:00;;;;;;;6.50;4.90;;;-1.20;72.00;;;;;;5099774;28;20469;-55
2023/01/12 04:46:26;;;;;;;6.85;4.38;;;-1.20;71.90;;;;;;5101730;28;20038;-52
2023/01/12 04:48:52;;;;;;;7.38;5.15;;;-1.10;72.00;;;;;;5097526;28;20675;-51
2023/01/12 04:51:17;;;;;;;6.95;5.28;;;-1.10;72.00;;;;;;5098994;28;20031;-51
2023/01/12 04:53:43;;;;;;;7.80;5.32;;;-1.10;71.90;;;;;;5100879;28;20027;-52
2023/01/12 04:56:09;;;;;;;6.55;4.72;;;-1.00;71.90;;;;;;5102983;28;20040;-50
2023/01/12 04:58:34;;;;;;;7.10;5.32;;;-1.00;71.70;;;;;;5095641;28;20063;-53
2023/01/12 05:01:12;;;;;;;7.80;5.43;;;-1.00;71.90;;;;;;5101582;28;20477;-59
2023/01/12 05:03:38;;;;;;;5.65;5.00;;;-0.90;71.70;;;;;;5098126;28;20043;-60
2023/01/12 05:06:04;;;;;;;8.02;5.85;;;-0.90;71.60;;;;;;5108005;28;20028;-59
2023/01/12 05:11:14;;;;;;;6.75;4.57;;;-0.80;71.70;;;;;;5099841;28;20034;-54
2023/01/12 05:13:40;;;;;;;6.30;5.20;;;-0.80;71.60;;;;;;5100443;28;20028;-55
2023/01/12 05:16:14;;;;;;;7.35;5.38;;;-0.70;71.60;;;;;;5104925;28;20027;-57
2023/01/12 05:18:40;;;;;;;6.82;5.53;;;-0.70;71.50;;;;;;5100481;28;20039;-52
2023/01/12 05:21:07;;;;;;;8.15;5.20;;;-0.70;71.30;;;;;;5099066;28;20042;-54
2023/01/12 05:23:32;;;;;;;6.78;5.05;;;-0.70;71.10;;;;;;5100391;28;20067;-57
2023/01/12 05:26:00;;;;;;;5.90;4.97;;;-0.80;70.90;;;;;;5100208;28;20071;-52
2023/01/12 05:28:30;;;;;;;6.22;4.93;;;-0.80;71.00;;;;;;5102927;28;20031;-52
2023/01/12 05:31:02;;;;;;;7.68;5.63;;;-0.80;71.10;;;;;;5099809;28;20031;-61
2023/01/12 05:33:28;;;;;;;7.55;5.35;;;-0.80;71.30;;;;;;5095773;28;20036;-62
2023/01/12 05:35:53;;;;;;;8.73;4.95;;;-0.90;71.10;;;;;;5098309;28;20221;-57
2023/01/12 05:38:19;;;;;;;11.10;6.35;;;-1.00;71.10;;;;;;5097999;28;20031;-58
2023/01/12 05:40:45;;;;;;;8.27;5.53;;;-1.00;71.30;;;;;;5097958;28;20046;-61
2023/01/12 05:46:00;;;;;;;8.57;6.28;;;-1.10;71.70;;;;;;5100558;28;20126;-53
2023/01/12 05:48:26;;;;;;;9.57;6.57;;;-1.20;71.90;;;;;;5107161;28;20169;-52
2023/01/12 05:50:52;;;;;;;9.18;6.25;;;-1.20;72.10;;;;;;5092723;28;20548;-57
2023/01/12 05:53:17;;;;;;;9.32;6.80;;;-1.30;72.20;;;;;;5100623;28;20038;-57
2023/01/12 05:55:43;;;;;;;11.50;8.25;;;-1.30;72.50;;;;;;5099481;28;20637;-57
2023/01/12 05:58:08;;;;;;;13.15;8.65;;;-1.30;72.60;;;;;;5101250;28;20039;-57
2023/01/12 06:00:34;;;;;;;12.38;8.32;;;-1.40;72.80;;;;;;5093887;28;20082;-55
2023/01/12 06:03:01;;;;;;;10.65;8.48;;;-1.50;73.00;;;;;;5105328;28;20060;-51
2023/01/12 06:05:27;;;;;;;12.23;8.73;;;-1.60;73.20;;;;;;5093703;28;20035;-55
2023/01/12 06:07:52;;;;;;;11.63;8.93;;;-1.70;73.40;;;;;;5097483;28;20482;-55
2023/01/12 06:10:18;;;;;;;12.98;8.40;;;-1.70;73.70;;;;;;5100753;28;20111;-53
2023/01/12 06:15:28;;;;;;;11.55;8.55;;;-1.80;74.00;;;;;;5096025;28;20111;-58
2023/01/12 06:17:55;;;;;;;13.02;8.60;;;-1.90;74.10;;;;;;5091691;28;20131;-57
2023/01/12 06:20:21;;;;;;;11.90;9.15;;;-1.90;74.30;;;;;;5093658;28;20156;-58
2023/01/12 06:22:46;;;;;;;14.48;9.82;;;-1.90;74.70;;;;;;5098040;28;20688;-58
2023/01/12 06:25:12;;;;;;;13.93;9.40;;;-1.90;74.80;;;;;;5095468;28;20165;-55
2023/01/12 06:27:38;;;;;;;14.60;9.25;;;-1.90;75.00;;;;;;5095888;28;20043;-55
2023/01/12 06:30:08;;;;;;;16.27;9.80;;;-1.90;75.20;;;;;;5102121;27;20069;-55
2023/01/12 06:32:34;;;;;;;14.93;9.40;;;-1.80;75.50;;;;;;5102300;28;20035;-56
2023/01/12 06:35:02;;;;;;;13.18;7.97;;;-1.70;75.40;;;;;;5104702;28;20117;-55
2023/01/12 06:37:27;;;;;;;8.63;7.15;;;-1.80;75.20;;;;;;5104787;27;20055;-56
2023/01/12 06:39:53;;;;;;;13.88;8.55;;;-1.80;75.30;;;;;;5097341;28;20028;-55
2023/01/12 06:42:27;;;;;;;14.90;9.25;;;-1.80;75.30;;;;;;5099590;28;20031;-56
2023/01/12 06:44:57;;;;;;;11.43;7.43;;;-1.70;75.50;;;;;;5100613;28;20042;-55
2023/01/12 06:47:24;;;;;;;11.82;8.25;;;-1.70;75.50;;;;;;5103219;28;20043;-56
2023/01/12 06:49:50;;;;;;;10.02;8.10;;;-1.70;76.20;;;;;;5105677;28;20040;-56
2023/01/12 06:52:20;;;;;;;12.32;8.90;;;-1.70;75.50;;;;;;5093687;28;20049;-56
2023/01/12 06:54:46;;;;;;;13.70;8.65;;;-1.60;75.50;;;;;;5095513;28;20100;-56
2023/01/12 06:57:13;;;;;;;16.50;9.05;;;-1.70;75.50;;;;;;5092596;28;20143;-57
2023/01/12 06:59:40;;;;;;;12.65;9.68;;;-1.60;75.50;;;;;;5090952;28;20396;-55
2023/01/12 07:02:10;;;;;;;13.52;9.45;;;-1.60;75.50;;;;;;5087793;28;20035;-56
2023/01/12 07:04:36;;;;;;;15.10;10.18;;;-1.70;75.60;;;;;;5095290;28;20032;-55
2023/01/12 07:07:02;;;;;;;14.05;9.45;;;-1.60;76.00;;;;;;5087936;28;21924;-54
2023/01/12 07:09:27;;;;;;;11.55;9.30;;;-1.70;75.80;;;;;;5098475;28;20047;-57
2023/01/12 07:11:53;;;;;;;13.25;10.68;;;-1.60;75.80;;;;;;5093005;28;20080;-53
2023/01/12 07:14:18;;;;;;;15.93;10.93;;;-1.70;75.70;;;;;;5091624;28;20102;-57
2023/01/12 07:16:44;;;;;;;13.32;9.73;;;-1.70;75.70;;;;;;5094022;28;20046;-56
2023/01/12 07:19:10;;;;;;;16.55;9.93;;;-1.70;75.80;;;;;;5098041;28;20119;-58
2023/01/12 07:21:35;;;;;;;11.88;9.60;;;-1.70;76.00;;;;;;5100058;28;20675;-57
2023/01/12 07:24:01;;;;;;;11.57;8.88;;;-1.70;76.20;;;;;;5100724;28;20024;-55
2023/01/12 07:26:27;;;;;;;16.58;10.57;;;-1.60;76.30;;;;;;5093806;28;20047;-55
2023/01/12 07:28:54;;;;;;;14.50;9.15;;;-1.50;76.10;;;;;;5092659;28;20488;-55
2023/01/12 07:31:20;;;;;;;16.63;11.38;;;-1.40;75.70;;;;;;5088829;28;20032;-56
2023/01/12 07:33:45;;;;;;;14.05;9.77;;;-1.40;76.40;;;;;;5093531;28;20420;-56
2023/01/12 07:36:12;;;;;;;11.63;9.40;;;-1.40;75.80;;;;;;5093392;28;20608;-56
2023/01/12 07:38:37;;;;;;;14.70;10.95;;;-1.40;75.80;;;;;;5094449;28;20063;-56
2023/01/12 07:41:04;;;;;;;12.10;9.52;;;-1.30;75.80;;;;;;5086779;28;20524;-55
2023/01/12 07:43:32;;;;;;;14.35;10.82;;;-1.20;75.60;;;;;;5084538;28;20032;-54
2023/01/12 07:45:58;;;;;;;14.82;9.95;;;-1.20;75.20;;;;;;5088232;27;20032;-55
2023/01/12 07:48:26;;;;;;;18.25;12.02;;;-1.20;75.00;;;;;;5082368;28;21358;-54
2023/01/12 07:50:52;;;;;;;16.40;12.13;;;-1.20;75.20;;;;;;5081277;28;20069;-57
2023/01/12 07:53:19;;;;;;;14.27;9.68;;;-1.20;75.20;;;;;;5073466;28;20035;-55
2023/01/12 07:55:44;;;;;;;13.25;10.48;;;-1.20;75.20;;;;;;5088332;28;20037;-56
2023/01/12 07:58:10;;;;;;;16.13;10.60;;;-1.10;75.30;;;;;;5078146;28;20108;-54
2023/01/12 08:00:36;;;;;;;11.75;9.38;;;-1.10;75.30;;;;;;5064056;28;20078;-55
2023/01/12 08:03:07;;;;;;;11.95;8.82;;;-1.00;75.10;;;;;;5072034;28;20038;-57
2023/01/12 08:05:34;;;;;;;12.05;9.38;;;-0.90;74.90;;;;;;5080213;28;21303;-56
2023/01/12 08:08:00;;;;;;;10.90;8.70;;;-0.80;74.90;;;;;;5077281;28;20051;-55
2023/01/12 08:10:25;;;;;;;12.27;9.07;;;-0.70;74.80;;;;;;5074643;28;20725;-54
2023/01/12 08:12:51;;;;;;;11.00;8.52;;;-0.70;74.50;;;;;;5075001;28;20036;-57
2023/01/12 08:15:17;;;;;;;12.57;8.63;;;-0.50;74.30;;;;;;5067504;28;20035;-56
2023/01/12 08:17:51;;;;;;;10.85;8.20;;;-0.40;73.70;;;;;;5075347;28;20043;-54
2023/01/12 08:20:21;;;;;;;10.45;7.90;;;-0.40;73.40;;;;;;5069315;28;20032;-54
2023/01/12 08:22:51;;;;;;;15.80;9.30;;;-0.40;73.00;;;;;;5065457;28;20740;-56
2023/01/12 08:25:26;;;;;;;12.88;7.40;;;-0.40;72.80;;;;;;5073955;28;20032;-57
2023/01/12 08:27:54;;;;;;;14.48;8.82;;;-0.40;72.60;;;;;;5077129;28;20121;-56
2023/01/12 08:30:22;;;;;;;10.48;8.60;;;-0.40;72.60;;;;;;5078964;28;20040;-58
2023/01/12 08:32:49;;;;;;;10.07;7.82;;;-0.50;72.30;;;;;;5059925;28;20312;-57
2023/01/12 08:35:21;;;;;;;9.43;7.55;;;-0.50;72.30;;;;;;5078394;28;20028;-56
2023/01/12 08:37:47;;;;;;;9.15;7.30;;;-0.50;72.50;;;;;;5067363;28;20155;-56
2023/01/12 08:40:14;;;;;;;14.85;9.98;;;-0.50;72.70;;;;;;5078032;28;20019;-57
2023/01/12 08:42:40;;;;;;;8.35;6.75;;;-0.50;72.50;;;;;;5080792;28;20052;-58
2023/01/12 08:45:07;;;;;;;12.15;8.27;;;-0.50;72.30;;;;;;5071646;28;20032;-57
2023/01/12 08:47:33;;;;;;;11.50;7.50;;;-0.50;72.30;;;;;;5079509;28;20063;-58
2023/01/12 08:49:59;;;;;;;13.02;9.15;;;-0.50;72.20;;;;;;5074755;28;20062;-57
2023/01/12 08:52:31;;;;;;;10.90;8.32;;;-0.50;72.10;;;;;;5068648;28;20549;-58
2023/01/12 08:54:57;;;;;;;10.70;8.23;;;-0.50;72.10;;;;;;5070698;28;20032;-56
2023/01/12 08:57:23;;;;;;;10.93;8.35;;;-0.50;72.20;;;;;;5060823;28;20044;-57
2023/01/12 08:59:49;;;;;;;13.02;9.25;;;-0.60;72.20;;;;;;5070290;28;20419;-51
2023/01/12 09:02:15;;;;;;;15.13;8.50;;;-0.60;72.10;;;;;;5062609;28;20101;-56
2023/01/12 09:04:41;;;;;;;8.73;7.30;;;-0.60;72.10;;;;;;5063127;28;20123;-53
2023/01/12 09:07:08;;;;;;;12.70;8.68;;;-0.60;72.10;;;;;;5069234;28;20053;-53
2023/01/12 09:09:34;;;;;;;8.85;6.78;;;-0.50;72.20;;;;;;5068586;28;20060;-58
2023/01/12 09:12:00;;;;;;;10.90;7.68;;;-0.50;72.00;;;;;;5064668;27;20032;-54
2023/01/12 09:14:26;;;;;;;10.20;7.53;;;-0.50;71.90;;;;;;5067547;28;20600;-57
2023/01/12 09:16:54;;;;;;;10.70;7.90;;;-0.50;71.80;;;;;;5068068;28;20024;-57
2023/01/12 09:19:20;;;;;;;13.38;10.00;;;-0.50;71.90;;;;;;5074337;28;20217;-55
2023/01/12 09:21:45;;;;;;;13.77;9.25;;;-0.50;71.80;;;;;;5077552;28;20027;-55
2023/01/12 09:24:13;;;;;;;16.90;10.15;;;-0.50;71.60;;;;;;5074410;28;20036;-54
2023/01/12 09:26:40;;;;;;;13.40;8.88;;;-0.50;71.70;;;;;;5073463;28;20224;-54
2023/01/12 09:29:07;;;;;;;18.10;9.82;;;-0.50;71.80;;;;;;5075992;28;20443;-53
2023/01/12 09:31:34;;;;;;;12.55;8.82;;;-0.60;71.50;;;;;;5069207;28;20106;-58
2023/01/12 09:34:00;;;;;;;10.45;7.72;;;-0.60;71.50;;;;;;5066903;28;20830;-56
2023/01/12 09:36:28;;;;;;;16.20;9.93;;;-0.70;71.50;;;;;;5075726;28;20039;-57
2023/01/12 09:38:54;;;;;;;10.80;8.30;;;-0.70;71.80;;;;;;5073699;28;20067;-59
2023/01/12 09:47:14;;;;;;;11.00;8.05;;;-0.70;72.00;;;;;;5074533;28;20039;-59
2023/01/12 09:49:44;;;;;;;11.50;7.90;;;-0.60;72.10;;;;;;5074888;28;20043;-60
2023/01/12 09:52:30;;;;;;;12.40;8.07;;;-0.60;71.70;;;;;;5080910;28;20036;-59
2023/01/12 09:54:56;;;;;;;9.10;6.97;;;-0.60;71.70;;;;;;5062836;28;20046;-58
2023/01/12 09:57:40;;;;;;;12.60;8.00;;;-0.60;71.70;;;;;;5047334;28;20131;-58
2023/01/12 10:00:14;;;;;;;10.82;8.05;;;-0.50;71.60;;;;;;5062753;28;20135;-56
2023/01/12 10:02:49;;;;;;;8.85;6.50;;;-0.50;71.10;;;;;;5062324;28;20501;-58
2023/01/12 10:05:36;;;;;;;9.30;6.45;;;-0.50;70.80;;;;;;5065941;28;20121;-58
2023/01/12 10:08:03;;;;;;;11.18;7.20;;;-0.50;70.80;;;;;;5065684;28;20452;-60
2023/01/12 10:10:28;;;;;;;9.00;6.13;;;-0.60;71.10;;;;;;5065308;28;20031;-59
2023/01/12 10:12:59;;;;;;;10.43;6.95;;;-0.50;71.20;;;;;;5065194;28;20070;-60
2023/01/12 10:15:41;;;;;;;9.05;7.35;;;-0.40;71.40;;;;;;5060186;28;21813;-60
2023/01/12 10:18:19;;;;;;;7.85;6.38;;;-0.30;71.40;;;;;;5053517;28;23665;-57
2023/01/12 10:20:45;;;;;;;13.27;8.98;;;-0.20;71.10;;;;;;5067393;28;20031;-58
2023/01/12 10:23:18;;;;;;;11.75;8.57;;;-0.20;70.90;;;;;;5067392;28;20272;-54
2023/01/12 10:25:49;;;;;;;14.30;8.77;;;-0.10;70.50;;;;;;5071013;28;20035;-56
2023/01/12 10:28:17;;;;;;;12.85;8.98;;;-0.10;70.50;;;;;;5073329;28;20738;-59
2023/01/12 10:30:43;;;;;;;11.82;8.77;;;-0.10;70.50;;;;;;5064994;28;20602;-53
2023/01/12 10:33:10;;;;;;;13.88;7.88;;;0.00;70.60;;;;;;5076547;28;21821;-58
2023/01/12 10:35:48;;;;;;;14.32;9.55;;;0.10;70.60;;;;;;5061640;28;20047;-58
2023/01/12 10:38:22;;;;;;;11.93;9.07;;;0.10;70.40;;;;;;5067000;28;20042;-56
2023/01/12 10:41:18;;;;;;;10.55;8.25;;;0.10;70.10;;;;;;5065181;28;20052;-54
2023/01/12 10:43:46;;;;;;;11.05;7.53;;;0.10;69.70;;;;;;5050792;28;20035;-58
2023/01/12 10:46:16;;;;;;;12.10;8.85;;;0.10;69.70;;;;;;5072422;28;20032;-57
2023/01/12 10:48:53;;;;;;;11.93;8.77;;;0.00;70.10;;;;;;5080129;28;20040;-52
2023/01/12 10:51:33;;;;;;;11.48;8.25;;;0.10;70.20;;;;;;5071334;28;20054;-55
2023/01/12 10:54:09;;;;;;;12.55;9.32;;;0.10;70.00;;;;;;5055423;28;20108;-59
2023/01/12 10:56:41;;;;;;;14.25;9.27;;;0.10;69.50;;;;;;5062317;28;20465;-59
2023/01/12 10:59:13;;;;;;;11.50;7.85;;;0.10;69.40;;;;;;5069819;28;20130;-53
2023/01/12 11:02:02;;;;;;;10.85;8.23;;;0.10;69.60;;;;;;5059584;28;20043;-55
2023/01/12 11:04:29;;;;;;;12.55;9.25;;;0.10;69.80;;;;;;5065435;28;20040;-58
2023/01/12 11:07:17;;;;;;;12.65;8.85;;;0.10;69.80;;;;;;5075382;28;20179;-57
2023/01/12 11:09:43;;;;;;;14.63;9.65;;;0.20;69.60;;;;;;5075017;28;20070;-57
2023/01/12 11:12:26;;;;;;;13.38;8.25;;;0.30;69.70;;;;;;5061273;28;20066;-55
2023/01/12 11:15:13;;;;;;;11.68;8.43;;;0.30;69.40;;;;;;5061508;28;21087;-58
2023/01/12 11:17:57;;;;;;;12.88;9.35;;;0.40;69.30;;;;;;5066628;28;20809;-57
2023/01/12 11:21:02;;;;;;;16.48;10.65;;;0.50;68.80;;;;;;5078311;27;20027;-55
2023/01/12 11:23:44;;;;;;;17.15;9.35;;;0.50;68.40;;;;;;4994751;28;20048;-57
2023/01/12 11:26:18;;;;;;;13.18;9.80;;;0.30;68.00;;;;;;5052600;28;20039;-60
2023/01/12 11:28:48;;;;;;;9.65;8.35;;;0.30;68.20;;;;;;5070135;28;20035;-54
2023/01/12 11:31:19;;;;;;;13.43;9.43;;;0.20;68.50;;;;;;5081016;27;20663;-57
2023/01/12 11:34:20;;;;;;;13.02;8.98;;;0.20;68.50;;;;;;5069411;28;20131;-55
2023/01/12 11:36:50;;;;;;;17.25;10.25;;;0.20;68.60;;;;;;5065268;28;20123;-58
2023/01/12 11:39:24;;;;;;;15.60;10.35;;;0.20;68.40;;;;;;5063627;28;20067;-55
2023/01/12 11:45:01;;;;;;;14.35;10.05;;;0.00;68.20;;;;;;5061975;28;20127;-59
2023/01/12 11:47:33;;;;;;;13.02;9.38;;;0.00;68.50;;;;;;5068349;27;20034;-58
2023/01/12 11:50:13;;;;;;;13.82;8.77;;;0.00;68.70;;;;;;5065572;28;20032;-58
2023/01/12 11:52:39;;;;;;;11.52;8.57;;;0.00;69.40;;;;;;5061931;28;20023;-53
2023/01/12 11:55:11;;;;;;;11.63;8.20;;;0.10;68.90;;;;;;5066354;28;20028;-54
2023/01/12 11:58:08;;;;;;;10.05;7.60;;;0.20;69.10;;;;;;5064768;28;20147;-59
2023/01/12 12:00:45;;;;;;;11.70;8.60;;;0.30;69.10;;;;;;5071198;28;20037;-55
2023/01/12 12:03:47;;;;;;;12.25;8.43;;;0.40;68.80;;;;;;5064193;28;20043;-56
2023/01/12 12:06:25;;;;;;;11.15;8.50;;;0.50;68.60;;;;;;5068697;28;20032;-57
2023/01/12 12:09:25;;;;;;;15.18;9.88;;;0.60;68.60;;;;;;5075725;27;20067;-55
2023/01/12 12:12:10;;;;;;;13.95;8.98;;;0.70;68.10;;;;;;5066978;28;20031;-56
2023/01/12 12:15:18;;;;;;;13.68;9.05;;;0.70;67.70;;;;;;5063523;28;20036;-59
2023/01/12 12:18:03;;;;;;;13.27;8.85;;;0.60;67.40;;;;;;5064731;28;20355;-56
2023/01/12 12:20:40;;;;;;;14.13;8.88;;;0.60;67.50;;;;;;5078471;28;20048;-53
2023/01/12 12:23:18;;;;;;;9.52;8.52;;;0.50;67.40;;;;;;5062323;28;21224;-57
2023/01/12 12:26:09;;;;;;;11.13;9.13;;;0.50;67.70;;;;;;5062912;28;20023;-56
2023/01/12 12:28:55;;;;;;;13.07;9.03;;;0.50;67.90;;;;;;5056510;28;20049;-60
2023/01/12 12:31:32;;;;;;;11.50;8.52;;;0.50;67.70;;;;;;5062912;28;21141;-59
2023/01/12 12:34:14;;;;;;;16.48;9.73;;;0.50;67.70;;;;;;5062261;28;20032;-60
2023/01/12 12:36:49;;;;;;;14.18;10.32;;;0.40;67.60;;;;;;5058233;28;20845;-59
2023/01/12 12:39:20;;;;;;;14.52;10.55;;;0.30;67.60;;;;;;5057045;28;20043;-55
2023/01/12 12:45:16;;;;;;;16.83;11.73;;;0.20;68.10;;;;;;5072603;28;20043;-59
2023/01/12 12:47:55;;;;;;;16.88;11.85;;;0.20;68.20;;;;;;5067985;28;20074;-58
2023/01/12 12:50:36;;;;;;;17.30;12.38;;;0.10;68.90;;;;;;5064466;28;20032;-55
2023/01/12 12:53:20;;;;;;;16.15;11.80;;;0.00;68.20;;;;;;5065084;28;20051;-56
2023/01/12 12:55:49;;;;;;;16.55;11.35;;;-0.10;68.30;;;;;;5062847;28;20040;-57
2023/01/12 12:58:20;;;;;;;15.80;11.25;;;-0.10;68.60;;;;;;5059469;28;20035;-60
2023/01/12 13:00:46;;;;;;;11.93;9.25;;;-0.20;68.60;;;;;;5065457;28;20078;-61
2023/01/12 13:03:40;;;;;;;11.65;8.77;;;-0.20;68.80;;;;;;5068090;28;20180;-60
2023/01/12 13:06:24;;;;;;;19.33;12.23;;;-0.20;69.00;;;;;;5056507;28;20123;-57
2023/01/12 13:08:59;;;;;;;18.10;12.15;;;-0.20;69.00;;;;;;5054957;28;20067;-59
2023/01/12 13:11:46;;;;;;;16.58;10.95;;;-0.20;69.10;;;;;;5068536;28;20039;-57
2023/01/12 13:14:26;;;;;;;16.95;11.43;;;-0.30;69.10;;;;;;5073172;28;20036;-58
2023/01/12 13:16:54;;;;;;;17.27;11.75;;;-0.30;69.20;;;;;;5073922;28;20053;-59
2023/01/12 13:19:44;;;;;;;17.67;12.50;;;-0.30;69.10;;;;;;5067369;28;20039;-59
2023/01/12 13:22:31;;;;;;;20.65;13.98;;;-0.30;69.10;;;;;;5064383;27;20047;-57
2023/01/12 13:25:21;;;;;;;20.27;14.70;;;-0.40;69.10;;;;;;5059658;28;20158;-58
2023/01/12 13:27:55;;;;;;;20.00;13.43;;;-0.50;69.10;;;;;;5047052;28;20470;-57
2023/01/12 13:30:29;;;;;;;18.95;12.80;;;-0.50;69.40;;;;;;5060841;28;20045;-56
2023/01/12 13:33:16;;;;;;;16.38;11.75;;;-0.60;69.50;;;;;;5059953;28;20733;-62
2023/01/12 13:35:45;;;;;;;19.95;13.18;;;-0.70;69.60;;;;;;5064114;28;20076;-53
2023/01/12 13:38:30;;;;;;;18.90;13.02;;;-0.70;69.90;;;;;;5073426;28;20035;-56
2023/01/12 13:43:13;;;;;;;18.33;11.85;;;-0.70;70.10;;;;;;5067194;28;20124;-57
2023/01/12 13:44:35;;;;;;;20.65;13.25;;;-0.80;69.60;;;;;;5041591;27;20548;-60
2023/01/12 13:47:25;;;;;;;14.73;11.35;;;-0.90;70.40;;;;;;5025641;28;20044;-56